28 de Noviembre, Argentina
Current Conditions -  °F | °C
As of 2:00 PM on Tuesday 27 Jan 2015 (Local Time) from SCCI Reporting Station
Broken Clouds Broken Clouds  
Wind Chill: 55°   Ceiling: 4000
Heat Index: 55°   Visibility: 6mi
Dew Point: 45°   Wind: 7mph
Humidity: 67%   Direction: 120°ESE
Pressure: 29.62"   Gusts: NA
Location:  51.65°S, 72.3°W
Report Text: SCCI 271700Z 12006KT 090V160 9999 BKN040 13/07 Q1003 NOSIG
Loading
Personal Weather Stations






























Interactive Weather Map New forecast layout! Learn more

10-Day Weather Forecast

Advertisements
Track Severe Weather on mobile